createdAt,value
2023-05-04T00:01:14.237Z,4.42
2023-05-04T00:04:22.459Z,4.58
2023-05-04T00:07:28.713Z,4.71
2023-05-04T00:10:35.595Z,4.84
2023-05-04T00:13:42.386Z,4.92
2023-05-04T00:16:49.673Z,5.02
2023-05-04T00:19:56.680Z,5.12
2023-05-04T00:23:04.076Z,5.20
2023-05-04T00:26:10.705Z,5.42
2023-05-04T00:29:18.737Z,5.64
2023-05-04T00:32:26.256Z,5.57
2023-05-04T00:35:33.515Z,5.84
2023-05-04T00:38:53.606Z,6.01
2023-05-04T00:45:23.138Z,6.25
2023-05-04T00:48:28.708Z,6.36
2023-05-04T00:51:33.932Z,6.29
2023-05-04T00:54:41.124Z,6.29
2023-05-04T00:57:47.146Z,6.42
2023-05-04T01:00:54.801Z,6.63
2023-05-04T01:04:00.978Z,6.77
2023-05-04T01:07:11.206Z,6.94
2023-05-04T01:10:27.401Z,7.18
2023-05-04T01:13:37.353Z,7.33
2023-05-04T01:16:53.976Z,7.37
2023-05-04T01:20:07.311Z,7.45
2023-05-04T01:23:12.557Z,7.63
2023-05-04T01:26:32.927Z,7.49
2023-05-04T01:29:53.861Z,7.55
2023-05-04T01:33:15.668Z,7.75
2023-05-04T01:36:26.152Z,7.69
2023-05-04T01:39:32.731Z,7.83
2023-05-04T01:46:00.524Z,7.94
2023-05-04T01:49:06.649Z,7.99
2023-05-04T01:57:47.196Z,8.40
2023-05-04T02:04:14.267Z,8.60
2023-05-04T02:07:19.946Z,8.52
2023-05-04T02:10:24.741Z,8.59
2023-05-04T02:13:28.621Z,8.78
2023-05-04T02:16:33.213Z,8.81
2023-05-04T02:19:41.919Z,8.63
2023-05-04T02:22:47.689Z,8.67
2023-05-04T02:25:58.529Z,9.01
2023-05-04T02:29:04.739Z,9.11
2023-05-04T02:32:15.689Z,9.36
2023-05-04T02:35:21.084Z,9.46
2023-05-04T02:38:24.851Z,9.43
2023-05-04T02:41:29.289Z,9.60
2023-05-04T02:44:32.569Z,9.79
2023-05-04T02:47:36.750Z,10.01
2023-05-04T02:50:40.689Z,9.98
2023-05-04T02:53:44.285Z,9.95
2023-05-04T02:56:51.404Z,9.93
2023-05-04T02:59:55.669Z,9.94
2023-05-04T03:02:59.465Z,10.17
2023-05-04T03:06:05.772Z,10.46
2023-05-04T03:09:11.115Z,10.57
2023-05-04T03:12:14.791Z,10.75
2023-05-04T03:15:19.655Z,11.03
2023-05-04T03:18:22.894Z,11.08
2023-05-04T03:21:27.181Z,11.15
2023-05-04T03:24:31.907Z,10.93
2023-05-04T03:30:58.495Z,10.99
2023-05-04T03:34:04.405Z,11.10
2023-05-04T03:37:10.902Z,10.84
2023-05-04T03:40:22.401Z,10.80
2023-05-04T03:43:32.126Z,10.57
2023-05-04T03:46:42.390Z,10.59
2023-05-04T03:49:51.146Z,10.80
2023-05-04T03:53:00.879Z,10.48
2023-05-04T03:56:11.632Z,10.52
2023-05-04T03:59:21.232Z,10.41
2023-05-04T04:02:33.217Z,10.69
2023-05-04T04:05:37.375Z,10.76
2023-05-04T04:08:41.853Z,10.89
2023-05-04T04:11:46.056Z,10.97
2023-05-04T04:14:53.034Z,10.96
2023-05-04T04:17:59.443Z,11.06
2023-05-04T04:21:12.225Z,11.11
2023-05-04T04:24:19.608Z,11.35
2023-05-04T04:27:24.974Z,11.38
2023-05-04T04:30:29.916Z,11.38
2023-05-04T04:33:35.580Z,11.49
2023-05-04T04:40:00.788Z,11.43
2023-05-04T04:43:06.846Z,11.57
2023-05-04T04:46:12.150Z,11.57
2023-05-04T04:49:18.411Z,11.58
2023-05-04T04:52:23.144Z,11.69
2023-05-04T04:55:27.499Z,11.75
2023-05-04T04:58:32.863Z,11.69
2023-05-04T05:01:38.397Z,11.66
2023-05-04T05:04:44.957Z,11.65
2023-05-04T05:07:48.212Z,11.70
2023-05-04T05:10:51.593Z,11.63
2023-05-04T05:13:55.844Z,11.80
2023-05-04T05:17:01.108Z,12.06
2023-05-04T05:20:11.439Z,12.42
2023-05-04T05:23:16.651Z,12.21
2023-05-04T05:26:21.165Z,12.35
2023-05-04T05:29:26.619Z,12.27
2023-05-04T05:32:31.497Z,12.24
2023-05-04T05:35:36.148Z,12.44
2023-05-04T05:38:40.407Z,12.33
2023-05-04T05:41:45.880Z,12.30
2023-05-04T05:44:49.928Z,12.49
2023-05-04T05:47:56.402Z,12.75
2023-05-04T05:51:01.038Z,13.06
2023-05-04T05:54:05.665Z,13.37
2023-05-04T05:57:09.904Z,13.34
2023-05-04T06:00:15.179Z,13.41
2023-05-04T06:03:19.656Z,13.06
2023-05-04T06:06:24.412Z,13.16
2023-05-04T06:09:28.871Z,13.28
2023-05-04T06:12:34.133Z,13.43
2023-05-04T06:15:38.015Z,13.98
2023-05-04T06:18:42.161Z,13.96
2023-05-04T06:21:45.708Z,13.89
2023-05-04T06:24:49.769Z,13.92
2023-05-04T06:27:53.380Z,14.09
2023-05-04T06:30:59.171Z,14.38
2023-05-04T06:34:02.939Z,14.57
2023-05-04T06:37:07.301Z,14.67
2023-05-04T06:40:12.013Z,14.57
2023-05-04T06:43:17.493Z,14.56
2023-05-04T06:46:21.441Z,14.64
2023-05-04T06:49:25.676Z,14.82
2023-05-04T06:52:30.378Z,15.78
2023-05-04T06:55:36.460Z,17.28
2023-05-04T06:58:40.049Z,18.31
2023-05-04T07:01:44.255Z,17.71
2023-05-04T07:04:48.058Z,17.90
2023-05-04T07:07:52.850Z,17.94
2023-05-04T07:10:59.073Z,18.02
2023-05-04T07:14:03.292Z,18.11
2023-05-04T07:24:19.228Z,19.56
2023-05-04T07:27:24.961Z,19.73
2023-05-04T07:30:29.745Z,19.36
2023-05-04T07:33:33.435Z,19.61
2023-05-04T07:36:36.720Z,20.07
2023-05-04T07:39:40.630Z,20.68
2023-05-04T07:42:44.400Z,21.13
2023-05-04T07:45:48.325Z,21.77
2023-05-04T07:48:52.172Z,21.57
2023-05-04T07:51:55.852Z,22.44
2023-05-04T07:54:58.970Z,23.23
2023-05-04T07:58:02.362Z,24.00
2023-05-04T08:01:05.484Z,22.26
2023-05-04T08:04:09.520Z,21.24
2023-05-04T08:07:12.851Z,22.09
2023-05-04T08:10:16.595Z,23.46
2023-05-04T08:13:19.608Z,24.66
2023-05-04T08:16:22.579Z,24.87
2023-05-04T08:19:25.674Z,25.25
2023-05-04T08:22:28.862Z,23.97
2023-05-04T08:25:32.903Z,23.70
2023-05-04T08:28:39.784Z,23.84
2023-05-04T08:31:43.891Z,23.49
2023-05-04T08:34:47.232Z,23.23
2023-05-04T08:37:51.246Z,24.74
2023-05-04T08:40:55.537Z,25.86
2023-05-04T08:43:59.734Z,24.49
2023-05-04T08:47:05.091Z,24.52
2023-05-04T08:50:08.670Z,25.47
2023-05-04T08:53:19.529Z,24.18
2023-05-04T08:56:24.056Z,24.05
2023-05-04T08:59:30.070Z,25.18
2023-05-04T09:02:34.318Z,25.39
2023-05-04T09:05:39.043Z,26.38
2023-05-04T09:08:43.427Z,26.62
2023-05-04T09:11:47.407Z,27.08
2023-05-04T09:14:51.410Z,27.79
2023-05-04T09:18:06.414Z,27.24
2023-05-04T09:21:10.702Z,27.49
2023-05-04T09:24:14.596Z,27.35
2023-05-04T09:27:20.616Z,26.71
2023-05-04T09:30:23.786Z,25.93
2023-05-04T09:33:28.477Z,26.25
2023-05-04T09:36:31.697Z,26.46
2023-05-04T09:39:36.371Z,25.86
2023-05-04T09:42:40.374Z,25.77
2023-05-04T09:45:46.299Z,25.43
2023-05-04T09:48:55.632Z,25.89
2023-05-04T09:52:03.732Z,26.18
2023-05-04T09:55:11.081Z,25.80
2023-05-04T09:58:19.153Z,24.97
2023-05-04T10:01:22.266Z,25.45
2023-05-04T10:04:26.853Z,25.49
2023-05-04T10:07:34.048Z,25.52
2023-05-04T10:10:40.365Z,25.47
2023-05-04T10:13:43.997Z,25.08
2023-05-04T10:17:13.868Z,24.94
2023-05-04T10:20:45.328Z,25.21
2023-05-04T10:24:08.595Z,25.93
2023-05-04T10:27:19.621Z,25.34
2023-05-04T10:30:26.642Z,24.94
2023-05-04T10:33:43.240Z,25.15
2023-05-04T10:36:47.521Z,24.52
2023-05-04T10:39:55.237Z,24.21
2023-05-04T10:42:58.763Z,23.88
2023-05-04T10:46:03.666Z,24.18
2023-05-04T10:49:20.641Z,24.06
2023-05-04T10:52:24.818Z,23.74
2023-05-04T10:55:28.475Z,23.49
2023-05-04T10:58:34.063Z,22.95
2023-05-04T11:01:47.212Z,22.47
2023-05-04T11:05:05.256Z,22.26
2023-05-04T11:08:22.792Z,21.59
2023-05-04T11:11:27.498Z,21.26
2023-05-04T11:14:31.722Z,20.97
2023-05-04T11:17:35.603Z,21.00
2023-05-04T11:20:39.850Z,20.62
2023-05-04T11:23:44.288Z,19.48
2023-05-04T11:26:49.836Z,18.48
2023-05-04T11:29:58.488Z,17.56
2023-05-04T11:33:15.774Z,16.74
2023-05-04T11:36:20.009Z,16.19
2023-05-04T11:39:24.062Z,15.77
2023-05-04T11:42:27.385Z,15.32
2023-05-04T11:45:38.232Z,14.89
2023-05-04T11:48:41.899Z,14.54
2023-05-04T11:51:46.501Z,14.16
2023-05-04T11:55:00.316Z,13.71
2023-05-04T11:58:07.658Z,13.43
2023-05-04T12:01:10.393Z,13.13
2023-05-04T12:04:13.795Z,13.00
2023-05-04T12:07:17.656Z,12.78
2023-05-04T12:10:32.183Z,12.52
2023-05-04T12:13:36.238Z,12.41
2023-05-04T12:16:40.910Z,12.17
2023-05-04T12:19:56.169Z,11.97
2023-05-04T12:23:07.051Z,11.70
2023-05-04T12:26:12.626Z,11.55
2023-05-04T12:29:17.219Z,11.36
2023-05-04T12:32:22.150Z,11.11
2023-05-04T12:35:29.140Z,10.93
2023-05-04T12:38:33.601Z,10.63
2023-05-04T12:41:38.194Z,10.52
2023-05-04T12:44:43.612Z,10.39
2023-05-04T12:47:47.607Z,10.22
2023-05-04T12:50:52.096Z,10.12
2023-05-04T12:53:58.756Z,10.04
2023-05-04T12:57:03.063Z,9.93
2023-05-04T13:00:10.265Z,9.84
2023-05-04T13:03:15.053Z,9.74
2023-05-04T13:06:18.938Z,9.66
2023-05-04T13:09:22.777Z,9.60
2023-05-04T13:12:26.634Z,9.50
2023-05-04T13:15:29.741Z,9.40
2023-05-04T13:18:34.185Z,9.29
2023-05-04T13:21:37.459Z,9.18
2023-05-04T13:24:40.891Z,9.05
2023-05-04T13:27:44.513Z,9.03
2023-05-04T13:30:48.573Z,8.92
2023-05-04T13:33:52.348Z,8.91
2023-05-04T13:36:56.167Z,8.92
2023-05-04T13:43:22.173Z,8.84
2023-05-04T13:46:25.249Z,8.87
2023-05-04T13:49:28.404Z,8.85
2023-05-04T13:52:32.482Z,8.80
2023-05-04T13:55:36.474Z,8.76
2023-05-04T13:58:39.794Z,8.69
2023-05-04T14:01:43.985Z,8.64
2023-05-04T14:04:46.958Z,8.63
2023-05-04T14:07:50.413Z,8.64
2023-05-04T14:10:53.375Z,8.64
2023-05-04T14:13:57.207Z,8.66
2023-05-04T14:17:00.931Z,8.63
2023-05-04T14:20:06.831Z,8.50
2023-05-04T14:23:10.537Z,8.31
2023-05-04T14:26:14.272Z,8.15
2023-05-04T14:29:18.002Z,8.04
2023-05-04T14:32:21.487Z,7.94
2023-05-04T14:35:24.645Z,7.78
2023-05-04T14:38:29.136Z,7.63
2023-05-04T14:41:37.495Z,7.56
2023-05-04T14:44:41.331Z,7.47
2023-05-04T14:47:44.592Z,7.37
2023-05-04T14:50:50.613Z,7.29
2023-05-04T14:53:59.344Z,7.19
2023-05-04T14:57:03.404Z,7.04
2023-05-04T15:06:43.849Z,6.73
2023-05-04T15:09:47.514Z,6.67
2023-05-04T15:12:52.054Z,6.63
2023-05-04T15:15:55.842Z,6.60
2023-05-04T15:19:04.232Z,6.50
2023-05-04T15:22:12.847Z,6.42
2023-05-04T15:31:59.703Z,6.16
2023-05-04T15:35:06.237Z,6.08
2023-05-04T15:38:10.493Z,5.93
2023-05-04T15:41:14.995Z,5.83
2023-05-04T15:44:21.574Z,5.73
2023-05-04T15:47:25.090Z,5.57
2023-05-04T15:50:29.768Z,5.46
2023-05-04T15:53:34.609Z,5.39
2023-05-04T15:56:38.538Z,5.35
2023-05-04T15:59:42.408Z,5.29
2023-05-04T16:02:46.381Z,5.23
2023-05-04T16:05:52.181Z,5.22
2023-05-04T16:08:56.298Z,5.22
2023-05-04T16:12:00.320Z,5.20
2023-05-04T16:15:04.519Z,5.19
2023-05-04T16:18:08.283Z,5.23
2023-05-04T16:21:14.872Z,5.28
2023-05-04T16:24:19.203Z,5.30
2023-05-04T16:27:27.932Z,5.35
2023-05-04T16:30:34.014Z,5.28
2023-05-04T16:33:37.734Z,5.22
2023-05-04T16:36:41.913Z,5.13
2023-05-04T16:39:45.639Z,5.07
2023-05-04T16:42:49.863Z,5.08
2023-05-04T16:45:53.675Z,5.08
2023-05-04T16:48:57.354Z,4.98
2023-05-04T16:52:03.005Z,4.91
2023-05-04T16:55:10.640Z,4.89
2023-05-04T16:58:14.967Z,4.89
2023-05-04T17:01:18.213Z,4.80
2023-05-04T17:04:21.835Z,4.70
2023-05-04T17:07:25.400Z,4.58
2023-05-04T17:10:29.385Z,4.52
2023-05-04T17:13:33.278Z,4.39
2023-05-04T17:16:37.281Z,4.36
2023-05-04T17:19:42.244Z,4.32
2023-05-04T17:22:46.550Z,4.30
2023-05-04T17:25:51.342Z,4.25
2023-05-04T17:28:54.962Z,4.22
2023-05-04T17:31:59.445Z,4.09
2023-05-04T17:35:15.994Z,4.05
2023-05-04T17:38:26.967Z,4.03
2023-05-04T17:41:30.993Z,3.96
2023-05-04T17:44:35.041Z,3.92
2023-05-04T17:47:38.897Z,3.91
2023-05-04T17:50:46.565Z,3.87
2023-05-04T17:53:49.745Z,3.81
2023-05-04T17:56:54.386Z,3.64
2023-05-04T17:59:58.208Z,3.53
2023-05-04T18:03:02.914Z,3.46
2023-05-04T18:06:07.253Z,3.36
2023-05-04T18:09:11.856Z,3.26
2023-05-04T18:12:16.474Z,3.12
2023-05-04T18:15:20.978Z,3.06
2023-05-04T18:18:24.410Z,3.06
2023-05-04T18:21:29.473Z,2.96
2023-05-04T18:24:34.195Z,2.98
2023-05-04T18:27:38.267Z,2.95
2023-05-04T18:30:42.399Z,2.98
2023-05-04T18:33:46.846Z,3.01
2023-05-04T18:36:50.697Z,3.02
2023-05-04T18:39:55.631Z,2.99
2023-05-04T18:42:59.564Z,2.92
2023-05-04T18:46:10.869Z,2.96
2023-05-04T18:49:16.332Z,2.95
2023-05-04T18:52:21.289Z,2.89
2023-05-04T18:55:25.880Z,2.82
2023-05-04T18:58:30.083Z,2.80
2023-05-04T19:01:34.469Z,2.78
2023-05-04T19:04:38.915Z,2.74
2023-05-04T19:07:42.940Z,2.73
2023-05-04T19:10:47.877Z,2.70
2023-05-04T19:13:52.162Z,2.70
2023-05-04T19:16:56.307Z,2.68
2023-05-04T19:19:59.977Z,2.58
2023-05-04T19:23:04.128Z,2.55
2023-05-04T19:26:07.710Z,2.44
2023-05-04T19:29:12.405Z,2.40
2023-05-04T19:32:24.434Z,2.37
2023-05-04T19:35:29.420Z,2.33
2023-05-04T19:38:33.410Z,2.32
2023-05-04T19:41:37.751Z,2.27
2023-05-04T19:44:41.765Z,2.19
2023-05-04T19:47:46.324Z,2.10
2023-05-04T19:50:50.405Z,2.02
2023-05-04T19:53:54.198Z,1.88
2023-05-04T19:56:57.940Z,1.78
2023-05-04T20:00:02.927Z,1.68
2023-05-04T20:03:14.572Z,1.57
2023-05-04T20:06:18.966Z,1.51
2023-05-04T20:09:22.928Z,1.47
2023-05-04T20:12:27.609Z,1.47
2023-05-04T20:15:31.348Z,1.46
2023-05-04T20:18:35.683Z,1.41
2023-05-04T20:21:39.645Z,1.37
2023-05-04T20:24:43.659Z,1.37
2023-05-04T20:27:49.050Z,1.39
2023-05-04T20:30:53.389Z,1.41
2023-05-04T20:33:57.382Z,1.34
2023-05-04T20:37:00.926Z,1.34
2023-05-04T20:40:04.771Z,1.30
2023-05-04T20:43:08.986Z,1.32
2023-05-04T20:46:13.049Z,1.16
2023-05-04T20:49:16.532Z,1.02
2023-05-04T20:52:20.415Z,1.15
2023-05-04T20:55:24.941Z,1.26
2023-05-04T20:58:28.250Z,1.39
2023-05-04T21:01:31.627Z,1.52
2023-05-04T21:04:36.075Z,1.62
2023-05-04T21:07:39.208Z,1.72
2023-05-04T21:10:43.006Z,1.85
2023-05-04T21:13:47.086Z,1.99
2023-05-04T21:16:51.200Z,2.10
2023-05-04T21:19:55.959Z,2.17
2023-05-04T21:22:59.991Z,2.32
2023-05-04T21:26:06.919Z,2.43
2023-05-04T21:29:13.671Z,2.58
2023-05-04T21:32:17.765Z,2.71
2023-05-04T21:35:22.465Z,2.84
2023-05-04T21:38:26.650Z,2.95
2023-05-04T21:41:30.837Z,3.03
2023-05-04T21:44:34.485Z,3.11
2023-05-04T21:47:37.587Z,3.19
2023-05-04T21:50:42.323Z,3.23
2023-05-04T21:53:46.118Z,3.29
2023-05-04T21:56:49.667Z,3.34
2023-05-04T21:59:53.528Z,3.41
2023-05-04T22:02:57.437Z,3.51
2023-05-04T22:06:01.570Z,3.51
2023-05-04T22:09:05.988Z,3.58
2023-05-04T22:12:10.151Z,3.68
2023-05-04T22:15:15.125Z,3.63
2023-05-04T22:18:19.254Z,3.56
2023-05-04T22:21:22.899Z,3.18
2023-05-04T22:24:27.057Z,3.05
2023-05-04T22:27:31.489Z,3.20
2023-05-04T22:30:35.312Z,3.36
2023-05-04T22:33:39.498Z,3.47
2023-05-04T22:36:42.818Z,3.63
2023-05-04T22:39:46.692Z,3.89
2023-05-04T22:42:50.204Z,4.20
2023-05-04T22:45:54.091Z,4.54
2023-05-04T22:48:58.093Z,4.87
2023-05-04T22:52:01.724Z,4.96
2023-05-04T22:55:06.361Z,5.13
2023-05-04T22:58:09.956Z,5.22
2023-05-04T23:01:13.743Z,5.30
2023-05-04T23:04:17.912Z,5.39
2023-05-04T23:07:21.701Z,5.44
2023-05-04T23:10:25.417Z,5.40
2023-05-04T23:13:29.290Z,5.39
2023-05-04T23:16:33.182Z,5.40
2023-05-04T23:19:37.051Z,5.56
2023-05-04T23:22:40.702Z,5.74
2023-05-04T23:25:44.372Z,6.02
2023-05-04T23:28:48.516Z,6.23
2023-05-04T23:31:53.889Z,6.54
2023-05-04T23:34:58.775Z,6.76
2023-05-04T23:38:01.747Z,7.02
2023-05-04T23:41:05.087Z,7.25
2023-05-04T23:44:09.129Z,7.52
2023-05-04T23:47:12.949Z,7.74
2023-05-04T23:50:16.813Z,7.97
2023-05-04T23:53:20.483Z,8.13
2023-05-04T23:56:24.519Z,8.26
2023-05-04T23:59:28.687Z,8.31
